sensor_id;sensor_type;location;lat;lon;timestamp;pressure;altitude;pressure_sealevel;temperature;humidity
63439;BME280;49567;48.958;8.294;2022-10-29T00:02:24;101070.84;;;15.92;80.72
63439;BME280;49567;48.958;8.294;2022-10-29T00:04:50;101073.56;;;15.92;80.81
63439;BME280;49567;48.958;8.294;2022-10-29T00:07:15;101076.84;;;15.94;80.94
63439;BME280;49567;48.958;8.294;2022-10-29T00:09:40;101074.94;;;15.95;80.76
63439;BME280;49567;48.958;8.294;2022-10-29T00:12:06;101075.47;;;15.92;80.75
63439;BME280;49567;48.958;8.294;2022-10-29T00:14:32;101076.84;;;15.89;80.78
63439;BME280;49567;48.958;8.294;2022-10-29T00:16:57;101064.81;;;15.90;80.66
63439;BME280;49567;48.958;8.294;2022-10-29T00:19:22;101072.44;;;15.88;80.89
63439;BME280;49567;48.958;8.294;2022-10-29T00:21:51;101074.09;;;15.89;80.97
63439;BME280;49567;48.958;8.294;2022-10-29T00:24:16;101065.06;;;15.89;81.00
63439;BME280;49567;48.958;8.294;2022-10-29T00:26:42;101064.53;;;15.87;81.28
63439;BME280;49567;48.958;8.294;2022-10-29T00:29:10;101070.53;;;15.89;81.20
63439;BME280;49567;48.958;8.294;2022-10-29T00:31:35;101066.16;;;15.88;81.07
63439;BME280;49567;48.958;8.294;2022-10-29T00:34:01;101066.72;;;15.90;80.96
63439;BME280;49567;48.958;8.294;2022-10-29T00:36:28;101064.00;;;15.90;81.28
63439;BME280;49567;48.958;8.294;2022-10-29T00:38:54;101064.00;;;15.95;80.85
63439;BME280;49567;48.958;8.294;2022-10-29T00:41:27;101065.38;;;15.97;80.62
63439;BME280;49567;48.958;8.294;2022-10-29T00:46:46;101060.44;;;15.94;80.81
63439;BME280;49567;48.958;8.294;2022-10-29T00:49:13;101057.16;;;15.92;80.69
63439;BME280;49567;48.958;8.294;2022-10-29T00:51:40;101068.66;;;15.89;80.65
63439;BME280;49567;48.958;8.294;2022-10-29T00:54:08;101068.06;;;15.82;80.83
63439;BME280;49567;48.958;8.294;2022-10-29T00:56:37;101071.84;;;15.76;80.92
63439;BME280;49567;48.958;8.294;2022-10-29T00:59:05;101075.66;;;15.75;81.03
63439;BME280;49567;48.958;8.294;2022-10-29T01:01:31;101081.69;;;15.77;80.93
63439;BME280;49567;48.958;8.294;2022-10-29T01:03:57;101068.53;;;15.74;81.23
63439;BME280;49567;48.958;8.294;2022-10-29T01:06:25;101066.63;;;15.75;81.01
63439;BME280;49567;48.958;8.294;2022-10-29T01:08:52;101070.47;;;15.74;81.08
63439;BME280;49567;48.958;8.294;2022-10-29T01:17:25;101063.59;;;15.71;80.39
63439;BME280;49567;48.958;8.294;2022-10-29T01:29:09;101057.00;;;15.62;80.41
63439;BME280;49567;48.958;8.294;2022-10-29T01:34:12;101049.31;;;15.59;80.30
63439;BME280;49567;48.958;8.294;2022-10-29T01:37:09;101052.59;;;15.56;80.31
63439;BME280;49567;48.958;8.294;2022-10-29T01:42:38;101043.84;;;15.54;80.07
63439;BME280;49567;48.958;8.294;2022-10-29T01:45:18;101041.88;;;15.49;80.03
63439;BME280;49567;48.958;8.294;2022-10-29T01:47:55;101036.19;;;15.51;79.88
63439;BME280;49567;48.958;8.294;2022-10-29T01:50:22;101040.47;;;15.47;79.81
63439;BME280;49567;48.958;8.294;2022-10-29T01:52:50;101029.56;;;15.47;79.73
63439;BME280;49567;48.958;8.294;2022-10-29T01:55:27;101027.34;;;15.44;79.71
63439;BME280;49567;48.958;8.294;2022-10-29T01:57:54;101032.81;;;15.44;79.44
63439;BME280;49567;48.958;8.294;2022-10-29T02:00:19;101035.78;;;15.42;79.39
63439;BME280;49567;48.958;8.294;2022-10-29T02:05:34;101035.72;;;15.32;79.86
63439;BME280;49567;48.958;8.294;2022-10-29T02:13:10;101030.53;;;15.31;79.83
63439;BME280;49567;48.958;8.294;2022-10-29T02:15:43;101022.34;;;15.31;79.60
63439;BME280;49567;48.958;8.294;2022-10-29T02:18:09;101029.66;;;15.25;79.77
63439;BME280;49567;48.958;8.294;2022-10-29T02:20:40;101022.78;;;15.18;79.93
63439;BME280;49567;48.958;8.294;2022-10-29T02:23:06;101023.25;;;15.10;80.34
63439;BME280;49567;48.958;8.294;2022-10-29T02:25:31;101016.69;;;15.05;80.63
63439;BME280;49567;48.958;8.294;2022-10-29T02:27:56;101018.56;;;15.05;80.24
63439;BME280;49567;48.958;8.294;2022-10-29T02:30:22;101010.38;;;15.05;80.32
63439;BME280;49567;48.958;8.294;2022-10-29T02:32:47;101015.06;;;15.04;80.19
63439;BME280;49567;48.958;8.294;2022-10-29T02:35:12;101007.97;;;15.08;80.21
63439;BME280;49567;48.958;8.294;2022-10-29T02:37:37;101019.72;;;15.09;80.15
63439;BME280;49567;48.958;8.294;2022-10-29T02:40:03;101021.06;;;15.06;79.79
63439;BME280;49567;48.958;8.294;2022-10-29T02:42:28;101018.84;;;15.03;79.63
63439;BME280;49567;48.958;8.294;2022-10-29T02:44:54;101016.94;;;15.04;79.72
63439;BME280;49567;48.958;8.294;2022-10-29T02:47:19;101016.94;;;15.04;79.58
63439;BME280;49567;48.958;8.294;2022-10-29T02:49:44;101008.75;;;15.04;79.85
63439;BME280;49567;48.958;8.294;2022-10-29T02:52:09;101021.81;;;15.02;79.71
63439;BME280;49567;48.958;8.294;2022-10-29T02:54:35;101020.72;;;14.98;79.79
63439;BME280;49567;48.958;8.294;2022-10-29T02:57:00;101004.34;;;14.98;79.60
63439;BME280;49567;48.958;8.294;2022-10-29T02:59:25;101005.97;;;14.99;79.64
63439;BME280;49567;48.958;8.294;2022-10-29T03:01:53;101005.97;;;14.99;79.63
63439;BME280;49567;48.958;8.294;2022-10-29T03:04:19;101006.78;;;14.94;79.77
63439;BME280;49567;48.958;8.294;2022-10-29T03:06:44;101002.91;;;14.90;79.90
63439;BME280;49567;48.958;8.294;2022-10-29T03:09:09;101005.66;;;14.90;79.82
63439;BME280;49567;48.958;8.294;2022-10-29T03:11:35;100998.81;;;14.88;79.50
63439;BME280;49567;48.958;8.294;2022-10-29T03:14:00;100996.84;;;14.83;79.73
63439;BME280;49567;48.958;8.294;2022-10-29T03:16:25;100986.69;;;14.79;79.71
63439;BME280;49567;48.958;8.294;2022-10-29T03:18:51;100988.03;;;14.76;79.79
63439;BME280;49567;48.958;8.294;2022-10-29T03:21:16;100983.94;;;14.74;79.54
63439;BME280;49567;48.958;8.294;2022-10-29T03:23:41;100979.56;;;14.73;79.39
63439;BME280;49567;48.958;8.294;2022-10-29T03:26:08;100976.53;;;14.69;79.48
63439;BME280;49567;48.958;8.294;2022-10-29T03:28:33;100983.84;;;14.64;79.20
63439;BME280;49567;48.958;8.294;2022-10-29T03:30:58;100992.78;;;14.59;79.47
63439;BME280;49567;48.958;8.294;2022-10-29T03:33:24;100987.84;;;14.56;79.24
63439;BME280;49567;48.958;8.294;2022-10-29T03:36:02;100981.84;;;14.54;79.32
63439;BME280;49567;48.958;8.294;2022-10-29T03:38:27;100990.28;;;14.52;79.07
63439;BME280;49567;48.958;8.294;2022-10-29T03:40:53;100994.09;;;14.51;79.26
63439;BME280;49567;48.958;8.294;2022-10-29T03:43:19;100995.41;;;14.49;79.60
63439;BME280;49567;48.958;8.294;2022-10-29T03:45:52;100996.25;;;14.49;79.24
63439;BME280;49567;48.958;8.294;2022-10-29T03:48:17;100994.34;;;14.50;79.53
63439;BME280;49567;48.958;8.294;2022-10-29T03:50:43;101003.34;;;14.50;79.26
63439;BME280;49567;48.958;8.294;2022-10-29T03:53:09;100996.25;;;14.49;79.40
63439;BME280;49567;48.958;8.294;2022-10-29T03:55:34;101000.38;;;14.52;79.34
63439;BME280;49567;48.958;8.294;2022-10-29T03:58:00;101003.88;;;14.47;79.73
63439;BME280;49567;48.958;8.294;2022-10-29T04:00:25;100999.50;;;14.46;79.90
63439;BME280;49567;48.958;8.294;2022-10-29T04:02:50;101003.06;;;14.47;79.66
63439;BME280;49567;48.958;8.294;2022-10-29T04:05:15;101002.22;;;14.46;79.66
63439;BME280;49567;48.958;8.294;2022-10-29T04:07:41;101010.38;;;14.41;79.96
63439;BME280;49567;48.958;8.294;2022-10-29T04:10:06;101001.16;;;14.47;79.32
63439;BME280;49567;48.958;8.294;2022-10-29T04:12:32;100993.41;;;14.39;79.56
63439;BME280;49567;48.958;8.294;2022-10-29T04:14:57;100995.03;;;14.35;79.69
63439;BME280;49567;48.958;8.294;2022-10-29T04:17:22;100998.25;;;14.32;79.26
63439;BME280;49567;48.958;8.294;2022-10-29T04:19:47;101002.03;;;14.31;79.49
63439;BME280;49567;48.958;8.294;2022-10-29T04:22:13;100997.66;;;14.30;79.19
63439;BME280;49567;48.958;8.294;2022-10-29T04:24:38;100999.81;;;14.28;79.26
63439;BME280;49567;48.958;8.294;2022-10-29T04:27:03;101001.97;;;14.26;79.16
63439;BME280;49567;48.958;8.294;2022-10-29T04:29:29;101000.91;;;14.27;79.49
63439;BME280;49567;48.958;8.294;2022-10-29T04:31:54;101004.69;;;14.26;79.19
63439;BME280;49567;48.958;8.294;2022-10-29T04:34:19;101002.78;;;14.27;79.30
63439;BME280;49567;48.958;8.294;2022-10-29T04:36:45;101000.66;;;14.29;79.15
63439;BME280;49567;48.958;8.294;2022-10-29T04:39:10;101012.88;;;14.26;79.29
63439;BME280;49567;48.958;8.294;2022-10-29T04:41:35;101009.28;;;14.21;79.47
63439;BME280;49567;48.958;8.294;2022-10-29T04:44:01;101003.50;;;14.17;79.50
63439;BME280;49567;48.958;8.294;2022-10-29T04:46:27;101004.56;;;14.16;79.78
63439;BME280;49567;48.958;8.294;2022-10-29T04:48:52;101005.69;;;14.15;79.59
63439;BME280;49567;48.958;8.294;2022-10-29T04:51:22;101002.94;;;14.15;79.75
63439;BME280;49567;48.958;8.294;2022-10-29T04:53:48;101000.47;;;14.14;79.55
63439;BME280;49567;48.958;8.294;2022-10-29T04:56:13;101004.53;;;14.11;79.79
63439;BME280;49567;48.958;8.294;2022-10-29T04:58:38;100998.25;;;14.11;79.41
63439;BME280;49567;48.958;8.294;2022-10-29T05:01:04;101000.44;;;14.09;79.82
63439;BME280;49567;48.958;8.294;2022-10-29T05:03:32;100997.38;;;14.05;79.40
63439;BME280;49567;48.958;8.294;2022-10-29T05:05:57;101005.56;;;14.05;79.54
63439;BME280;49567;48.958;8.294;2022-10-29T05:08:23;101006.06;;;14.02;79.44
63439;BME280;49567;48.958;8.294;2022-10-29T05:10:48;101007.66;;;13.98;79.56
63439;BME280;49567;48.958;8.294;2022-10-29T05:13:13;101006.19;;;13.90;79.60
63439;BME280;49567;48.958;8.294;2022-10-29T05:15:39;101002.63;;;13.90;79.57
63439;BME280;49567;48.958;8.294;2022-10-29T05:18:05;101011.63;;;13.90;79.44
63439;BME280;49567;48.958;8.294;2022-10-29T05:20:31;101005.34;;;13.90;79.15
63439;BME280;49567;48.958;8.294;2022-10-29T05:22:59;101007.28;;;13.89;79.35
63439;BME280;49567;48.958;8.294;2022-10-29T05:25:24;101014.31;;;13.85;78.95
63439;BME280;49567;48.958;8.294;2022-10-29T05:27:50;101016.75;;;13.87;79.22
63439;BME280;49567;48.958;8.294;2022-10-29T05:30:15;101005.84;;;13.87;79.22
63439;BME280;49567;48.958;8.294;2022-10-29T05:32:43;101000.22;;;13.93;79.13
63439;BME280;49567;48.958;8.294;2022-10-29T05:35:11;101001.88;;;13.94;79.01
63439;BME280;49567;48.958;8.294;2022-10-29T05:37:36;101000.22;;;13.93;78.87
63439;BME280;49567;48.958;8.294;2022-10-29T05:40:01;101000.50;;;13.92;78.86
63439;BME280;49567;48.958;8.294;2022-10-29T05:42:27;101002.38;;;13.91;78.81
63439;BME280;49567;48.958;8.294;2022-10-29T05:44:52;101001.75;;;13.84;78.98
63439;BME280;49567;48.958;8.294;2022-10-29T05:47:17;101016.19;;;13.85;79.05
63439;BME280;49567;48.958;8.294;2022-10-29T05:49:42;101019.16;;;13.83;79.36
63439;BME280;49567;48.958;8.294;2022-10-29T05:52:08;101021.09;;;13.83;78.95
63439;BME280;49567;48.958;8.294;2022-10-29T05:54:33;101015.31;;;13.79;79.14
63439;BME280;49567;48.958;8.294;2022-10-29T05:56:58;101014.50;;;13.79;79.04
63439;BME280;49567;48.958;8.294;2022-10-29T05:59:24;101007.66;;;13.76;79.10
63439;BME280;49567;48.958;8.294;2022-10-29T06:01:49;101008.72;;;13.75;79.09
63439;BME280;49567;48.958;8.294;2022-10-29T06:04:14;101005.41;;;13.73;78.92
63439;BME280;49567;48.958;8.294;2022-10-29T06:06:39;101006.50;;;13.72;78.99
63439;BME280;49567;48.958;8.294;2022-10-29T06:09:05;101005.69;;;13.72;78.94
63439;BME280;49567;48.958;8.294;2022-10-29T06:11:30;101005.34;;;13.68;79.07
63439;BME280;49567;48.958;8.294;2022-10-29T06:13:56;101000.97;;;13.67;78.96
63439;BME280;49567;48.958;8.294;2022-10-29T06:16:24;101007.25;;;13.68;78.68
63439;BME280;49567;48.958;8.294;2022-10-29T06:18:52;101008.31;;;13.67;78.72
63439;BME280;49567;48.958;8.294;2022-10-29T06:21:17;101001.81;;;13.68;78.51
63439;BME280;49567;48.958;8.294;2022-10-29T06:23:43;101006.69;;;13.66;78.40
63439;BME280;49567;48.958;8.294;2022-10-29T06:26:08;101007.50;;;13.66;78.65
63439;BME280;49567;48.958;8.294;2022-10-29T06:28:33;101009.97;;;13.68;78.60
63439;BME280;49567;48.958;8.294;2022-10-29T06:30:58;101009.41;;;13.66;78.57
63439;BME280;49567;48.958;8.294;2022-10-29T06:33:24;101010.25;;;13.66;78.60
63439;BME280;49567;48.958;8.294;2022-10-29T06:35:49;101011.31;;;13.65;78.57
63439;BME280;49567;48.958;8.294;2022-10-29T06:38:14;101011.88;;;13.67;78.38
63439;BME280;49567;48.958;8.294;2022-10-29T06:40:41;101018.41;;;13.66;78.60
63439;BME280;49567;48.958;8.294;2022-10-29T06:43:08;101009.97;;;13.68;78.33
63439;BME280;49567;48.958;8.294;2022-10-29T06:45:34;101007.56;;;13.71;78.30
63439;BME280;49567;48.958;8.294;2022-10-29T06:48:00;101017.41;;;13.72;78.37
63439;BME280;49567;48.958;8.294;2022-10-29T06:50:26;101019.84;;;13.74;78.22
63439;BME280;49567;48.958;8.294;2022-10-29T06:52:59;101024.00;;;13.76;78.24
63439;BME280;49567;48.958;8.294;2022-10-29T06:55:25;101023.22;;;13.81;78.51
63439;BME280;49567;48.958;8.294;2022-10-29T06:58:02;101025.44;;;13.84;78.27
63439;BME280;49567;48.958;8.294;2022-10-29T07:00:29;101025.75;;;13.87;78.35
63439;BME280;49567;48.958;8.294;2022-10-29T07:02:55;101025.25;;;13.90;78.39
63439;BME280;49567;48.958;8.294;2022-10-29T07:05:21;101024.50;;;13.95;78.70
63439;BME280;49567;48.958;8.294;2022-10-29T07:07:46;101024.81;;;13.98;78.67
63439;BME280;49567;48.958;8.294;2022-10-29T07:10:12;101021.59;;;14.01;78.94
63439;BME280;49567;48.958;8.294;2022-10-29T07:12:39;101020.84;;;14.06;78.89
63439;BME280;49567;48.958;8.294;2022-10-29T07:15:04;101021.13;;;14.10;79.05
63439;BME280;49567;48.958;8.294;2022-10-29T07:17:30;101023.38;;;14.13;78.81
63439;BME280;49567;48.958;8.294;2022-10-29T07:19:55;101023.66;;;14.16;79.02
63439;BME280;49567;48.958;8.294;2022-10-29T07:22:20;101016.63;;;14.20;79.30
63439;BME280;49567;48.958;8.294;2022-10-29T07:24:46;101023.47;;;14.23;79.09
63439;BME280;49567;48.958;8.294;2022-10-29T07:27:11;101023.22;;;14.24;79.01
63439;BME280;49567;48.958;8.294;2022-10-29T07:29:36;101022.16;;;14.25;79.09
63439;BME280;49567;48.958;8.294;2022-10-29T07:32:02;101024.88;;;14.25;79.34
63439;BME280;49567;48.958;8.294;2022-10-29T07:34:27;101030.06;;;14.27;79.49
63439;BME280;49567;48.958;8.294;2022-10-29T07:36:52;101026.50;;;14.26;79.44
63439;BME280;49567;48.958;8.294;2022-10-29T07:39:18;101021.88;;;14.27;79.63
63439;BME280;49567;48.958;8.294;2022-10-29T07:41:43;101037.47;;;14.31;79.50
63439;BME280;49567;48.958;8.294;2022-10-29T07:44:08;101034.75;;;14.31;80.02
63439;BME280;49567;48.958;8.294;2022-10-29T07:46:33;101041.28;;;14.30;80.06
63439;BME280;49567;48.958;8.294;2022-10-29T07:48:59;101032.94;;;14.37;79.96
63439;BME280;49567;48.958;8.294;2022-10-29T07:51:24;101041.44;;;14.40;79.84
63439;BME280;49567;48.958;8.294;2022-10-29T07:53:49;101037.44;;;14.48;80.03
63439;BME280;49567;48.958;8.294;2022-10-29T07:56:15;101036.91;;;14.51;80.04
63439;BME280;49567;48.958;8.294;2022-10-29T07:58:40;101034.81;;;14.58;79.90
63439;BME280;49567;48.958;8.294;2022-10-29T08:01:05;101034.91;;;14.68;79.60
63439;BME280;49567;48.958;8.294;2022-10-29T08:03:30;101030.03;;;14.75;79.49
63439;BME280;49567;48.958;8.294;2022-10-29T08:05:56;101039.94;;;14.81;79.36
63439;BME280;49567;48.958;8.294;2022-10-29T08:08:21;101044.88;;;14.84;79.35
63439;BME280;49567;48.958;8.294;2022-10-29T08:10:47;101037.56;;;14.90;79.37
63439;BME280;49567;48.958;8.294;2022-10-29T08:13:12;101040.91;;;14.97;79.34
63439;BME280;49567;48.958;8.294;2022-10-29T08:15:37;101039.31;;;15.01;79.13
63439;BME280;49567;48.958;8.294;2022-10-29T08:18:09;101037.13;;;15.03;79.16
63439;BME280;49567;48.958;8.294;2022-10-29T08:20:35;101032.50;;;15.03;79.29
63439;BME280;49567;48.958;8.294;2022-10-29T08:23:00;101030.63;;;15.09;79.06
63439;BME280;49567;48.958;8.294;2022-10-29T08:25:25;101031.00;;;15.18;78.91
63439;BME280;49567;48.958;8.294;2022-10-29T08:27:58;101038.38;;;15.22;78.75
63439;BME280;49567;48.958;8.294;2022-10-29T08:30:24;101036.22;;;15.24;78.64
63439;BME280;49567;48.958;8.294;2022-10-29T08:32:49;101038.44;;;15.27;78.52
63439;BME280;49567;48.958;8.294;2022-10-29T08:35:14;101029.13;;;15.28;78.31
63439;BME280;49567;48.958;8.294;2022-10-29T08:37:41;101029.97;;;15.29;78.29
63439;BME280;49567;48.958;8.294;2022-10-29T08:42:59;101020.69;;;15.30;78.48
63439;BME280;49567;48.958;8.294;2022-10-29T08:45:38;101025.94;;;15.36;78.33
63439;BME280;49567;48.958;8.294;2022-10-29T08:48:38;101035.78;;;15.42;78.46
63439;BME280;49567;48.958;8.294;2022-10-29T08:51:23;101030.38;;;15.47;78.46
63439;BME280;49567;48.958;8.294;2022-10-29T08:53:51;101045.00;;;15.63;78.36
63439;BME280;49567;48.958;8.294;2022-10-29T08:56:24;101036.56;;;15.75;77.88
63439;BME280;49567;48.958;8.294;2022-10-29T08:59:00;101036.63;;;15.80;77.76
63439;BME280;49567;48.958;8.294;2022-10-29T09:01:27;101045.97;;;15.94;77.35
63439;BME280;49567;48.958;8.294;2022-10-29T09:03:53;101041.66;;;16.03;76.61
63439;BME280;49567;48.958;8.294;2022-10-29T09:06:23;101030.75;;;16.13;76.07
63439;BME280;49567;48.958;8.294;2022-10-29T09:09:20;101033.25;;;16.20;76.46
63439;BME280;49567;48.958;8.294;2022-10-29T09:11:57;101034.09;;;16.35;76.53
63439;BME280;49567;48.958;8.294;2022-10-29T09:20:21;101027.13;;;17.25;75.18
63439;BME280;49567;48.958;8.294;2022-10-29T09:23:08;101035.81;;;17.88;72.79
63439;BME280;49567;48.958;8.294;2022-10-29T09:25:44;101028.16;;;17.80;72.66
63439;BME280;49567;48.958;8.294;2022-10-29T09:28:27;101019.97;;;17.49;73.95
63439;BME280;49567;48.958;8.294;2022-10-29T09:31:08;101018.59;;;17.62;73.68
63439;BME280;49567;48.958;8.294;2022-10-29T09:33:37;101018.28;;;17.74;73.45
63439;BME280;49567;48.958;8.294;2022-10-29T09:36:19;101017.94;;;17.95;73.23
63439;BME280;49567;48.958;8.294;2022-10-29T09:38:58;101024.44;;;18.74;71.00
63439;BME280;49567;48.958;8.294;2022-10-29T09:41:30;101017.78;;;19.71;67.80
63439;BME280;49567;48.958;8.294;2022-10-29T09:44:01;101029.38;;;20.77;63.44
63439;BME280;49567;48.958;8.294;2022-10-29T09:52:01;101022.41;;;21.62;60.17
63439;BME280;49567;48.958;8.294;2022-10-29T09:54:29;101029.38;;;21.28;61.37
63439;BME280;49567;48.958;8.294;2022-10-29T09:56:56;101033.31;;;21.40;61.86
63439;BME280;49567;48.958;8.294;2022-10-29T09:59:32;101049.84;;;22.13;59.76
63439;BME280;49567;48.958;8.294;2022-10-29T10:01:59;101036.56;;;22.79;57.66
63439;BME280;49567;48.958;8.294;2022-10-29T10:04:33;101034.25;;;23.16;56.54
63439;BME280;49567;48.958;8.294;2022-10-29T10:07:10;101043.28;;;23.84;54.79
63439;BME280;49567;48.958;8.294;2022-10-29T10:12:15;101038.44;;;24.46;52.99
63439;BME280;49567;48.958;8.294;2022-10-29T10:14:41;101029.03;;;24.98;51.31
63439;BME280;49567;48.958;8.294;2022-10-29T10:17:06;101024.94;;;25.04;50.73
63439;BME280;49567;48.958;8.294;2022-10-29T10:19:31;101011.34;;;23.77;53.10
63439;BME280;49567;48.958;8.294;2022-10-29T10:22:03;101015.47;;;22.33;57.86
63439;BME280;49567;48.958;8.294;2022-10-29T10:24:33;101015.19;;;21.34;60.67
63439;BME280;49567;48.958;8.294;2022-10-29T10:27:00;101017.25;;;20.78;62.38
63439;BME280;49567;48.958;8.294;2022-10-29T10:29:26;101013.78;;;20.48;63.62
63439;BME280;49567;48.958;8.294;2022-10-29T10:34:23;101005.13;;;20.17;64.55
63439;BME280;49567;48.958;8.294;2022-10-29T10:36:51;101000.34;;;20.04;65.18
63439;BME280;49567;48.958;8.294;2022-10-29T10:41:49;100981.69;;;20.01;65.71
63439;BME280;49567;48.958;8.294;2022-10-29T10:44:15;100980.34;;;19.99;65.81
63439;BME280;49567;48.958;8.294;2022-10-29T10:46:43;100976.19;;;20.01;65.73
63439;BME280;49567;48.958;8.294;2022-10-29T10:49:38;100970.59;;;20.06;65.66
63439;BME280;49567;48.958;8.294;2022-10-29T10:52:24;100961.84;;;20.04;65.91
63439;BME280;49567;48.958;8.294;2022-10-29T10:55:19;100955.03;;;19.97;66.15
63439;BME280;49567;48.958;8.294;2022-10-29T10:57:53;100953.16;;;19.92;66.00
63439;BME280;49567;48.958;8.294;2022-10-29T11:00:21;100949.06;;;19.90;66.26
63439;BME280;49567;48.958;8.294;2022-10-29T11:02:56;100950.72;;;19.91;66.35
63439;BME280;49567;48.958;8.294;2022-10-29T11:05:35;100938.91;;;19.90;66.52
63439;BME280;49567;48.958;8.294;2022-10-29T11:08:16;100937.25;;;19.89;65.97
63439;BME280;49567;48.958;8.294;2022-10-29T11:11:23;100937.63;;;19.83;66.34
63439;BME280;49567;48.958;8.294;2022-10-29T11:13:53;100924.47;;;19.80;66.07
63439;BME280;49567;48.958;8.294;2022-10-29T11:16:36;100920.59;;;19.81;65.39
63439;BME280;49567;48.958;8.294;2022-10-29T11:19:18;100921.41;;;19.81;65.67
63439;BME280;49567;48.958;8.294;2022-10-29T11:24:52;100919.25;;;19.78;66.71
63439;BME280;49567;48.958;8.294;2022-10-29T11:27:36;100914.00;;;19.82;66.84
63439;BME280;49567;48.958;8.294;2022-10-29T11:30:16;100915.34;;;19.84;66.76
63439;BME280;49567;48.958;8.294;2022-10-29T11:33:12;100904.84;;;19.86;66.44
63439;BME280;49567;48.958;8.294;2022-10-29T11:36:02;100913.31;;;19.90;66.71
63439;BME280;49567;48.958;8.294;2022-10-29T11:38:40;100904.78;;;19.91;67.26
63439;BME280;49567;48.958;8.294;2022-10-29T11:43:51;100895.94;;;19.94;67.17
63439;BME280;49567;48.958;8.294;2022-10-29T11:57:11;100878.81;;;20.16;66.87
63439;BME280;49567;48.958;8.294;2022-10-29T11:59:54;100873.53;;;20.19;66.85
63439;BME280;49567;48.958;8.294;2022-10-29T12:02:36;100867.97;;;20.25;66.51
63439;BME280;49567;48.958;8.294;2022-10-29T12:05:19;100863.31;;;20.25;66.02
63439;BME280;49567;48.958;8.294;2022-10-29T12:11:12;100858.69;;;20.39;65.21
63439;BME280;49567;48.958;8.294;2022-10-29T12:14:14;100859.44;;;20.45;64.95
63439;BME280;49567;48.958;8.294;2022-10-29T12:17:03;100855.47;;;20.51;64.75
63439;BME280;49567;48.958;8.294;2022-10-29T12:22:46;100848.25;;;20.68;63.60
63439;BME280;49567;48.958;8.294;2022-10-29T12:28:17;100842.75;;;20.68;63.91
63439;BME280;49567;48.958;8.294;2022-10-29T12:31:03;100835.03;;;20.70;64.19
63439;BME280;49567;48.958;8.294;2022-10-29T12:36:21;100824.81;;;20.71;64.83
63439;BME280;49567;48.958;8.294;2022-10-29T12:38:54;100824.81;;;20.71;64.76
63439;BME280;49567;48.958;8.294;2022-10-29T12:41:26;100833.09;;;20.71;64.63
63439;BME280;49567;48.958;8.294;2022-10-29T12:44:04;100833.59;;;20.73;64.00
63439;BME280;49567;48.958;8.294;2022-10-29T12:46:37;100825.81;;;20.75;64.08
63439;BME280;49567;48.958;8.294;2022-10-29T12:54:25;100807.78;;;20.83;64.10
63439;BME280;49567;48.958;8.294;2022-10-29T12:56:53;100813.00;;;20.84;64.23
63439;BME280;49567;48.958;8.294;2022-10-29T13:01:49;100798.31;;;20.89;64.08
63439;BME280;49567;48.958;8.294;2022-10-29T13:04:29;100799.34;;;20.93;64.02
63439;BME280;49567;48.958;8.294;2022-10-29T13:07:23;100794.94;;;20.92;63.96
63439;BME280;49567;48.958;8.294;2022-10-29T13:09:48;100792.38;;;20.95;63.85
63439;BME280;49567;48.958;8.294;2022-10-29T13:12:53;100794.25;;;21.00;63.86
63439;BME280;49567;48.958;8.294;2022-10-29T13:15:27;100793.63;;;21.03;63.33
63439;BME280;49567;48.958;8.294;2022-10-29T13:17:56;100793.31;;;21.04;63.48
63439;BME280;49567;48.958;8.294;2022-10-29T13:20:34;100790.03;;;21.02;64.07
63439;BME280;49567;48.958;8.294;2022-10-29T13:23:01;100779.34;;;21.01;64.02
63439;BME280;49567;48.958;8.294;2022-10-29T13:30:37;100780.13;;;21.01;64.60
63439;BME280;49567;48.958;8.294;2022-10-29T13:43:32;100777.78;;;20.95;64.54
63439;BME280;49567;48.958;8.294;2022-10-29T13:46:07;100781.97;;;20.92;65.28
63439;BME280;49567;48.958;8.294;2022-10-29T13:48:43;100776.78;;;20.91;65.69
63439;BME280;49567;48.958;8.294;2022-10-29T13:51:14;100771.38;;;20.86;66.28
63439;BME280;49567;48.958;8.294;2022-10-29T13:53:58;100771.56;;;20.89;66.41
63439;BME280;49567;48.958;8.294;2022-10-29T13:56:34;100775.44;;;20.88;66.78
63439;BME280;49567;48.958;8.294;2022-10-29T13:59:07;100773.31;;;20.85;67.15
63439;BME280;49567;48.958;8.294;2022-10-29T14:01:37;100773.63;;;20.84;67.07
63439;BME280;49567;48.958;8.294;2022-10-29T14:04:18;100766.69;;;20.86;66.96
63439;BME280;49567;48.958;8.294;2022-10-29T14:06:46;100768.13;;;20.84;67.35
63439;BME280;49567;48.958;8.294;2022-10-29T14:09:19;100769.72;;;20.85;67.16
63439;BME280;49567;48.958;8.294;2022-10-29T14:11:54;100762.59;;;20.84;67.31
63439;BME280;49567;48.958;8.294;2022-10-29T14:14:35;100756.78;;;20.85;67.40
63439;BME280;49567;48.958;8.294;2022-10-29T14:17:16;100761.78;;;20.83;67.43
63439;BME280;49567;48.958;8.294;2022-10-29T14:19:44;100761.78;;;20.83;67.66
63439;BME280;49567;48.958;8.294;2022-10-29T14:24:47;100759.03;;;20.83;67.98
63439;BME280;49567;48.958;8.294;2022-10-29T14:27:12;100758.72;;;20.85;68.15
63439;BME280;49567;48.958;8.294;2022-10-29T14:29:39;100757.72;;;20.81;68.35
63439;BME280;49567;48.958;8.294;2022-10-29T14:34:37;100761.06;;;20.78;68.24
63439;BME280;49567;48.958;8.294;2022-10-29T14:37:25;100760.34;;;20.72;68.79
63439;BME280;49567;48.958;8.294;2022-10-29T14:39:55;100754.63;;;20.68;68.60
63439;BME280;49567;48.958;8.294;2022-10-29T14:42:33;100755.84;;;20.62;68.82
63439;BME280;49567;48.958;8.294;2022-10-29T14:45:02;100756.25;;;20.56;68.24
63439;BME280;49567;48.958;8.294;2022-10-29T14:47:31;100754.50;;;20.46;68.98
63439;BME280;49567;48.958;8.294;2022-10-29T14:50:01;100750.41;;;20.44;68.87
63439;BME280;49567;48.958;8.294;2022-10-29T14:52:37;100752.13;;;20.40;68.58
63439;BME280;49567;48.958;8.294;2022-10-29T14:57:41;100749.78;;;20.33;68.73